createdAt,value
2022-08-23T00:00:26.255Z,51.81
2022-08-23T00:02:54.446Z,51.78
2022-08-23T00:05:22.528Z,51.99
2022-08-23T00:07:50.315Z,52.28
2022-08-23T00:10:18.001Z,52.50
2022-08-23T00:12:45.762Z,52.74
2022-08-23T00:15:13.508Z,52.86
2022-08-23T00:17:42.456Z,53.25
2022-08-23T00:20:10.165Z,52.93
2022-08-23T00:22:37.907Z,53.42
2022-08-23T00:25:05.726Z,53.46
2022-08-23T00:27:33.843Z,53.86
2022-08-23T00:30:01.617Z,53.68
2022-08-23T00:32:29.502Z,53.63
2022-08-23T00:34:57.287Z,53.91
2022-08-23T00:37:25.131Z,53.82
2022-08-23T00:39:52.924Z,53.85
2022-08-23T00:42:43.692Z,54.38
2022-08-23T00:45:29.213Z,53.96
2022-08-23T00:47:58.131Z,54.07
2022-08-23T00:50:25.953Z,54.64
2022-08-23T00:52:53.657Z,54.21
2022-08-23T00:55:21.782Z,54.64
2022-08-23T00:57:49.527Z,54.93
2022-08-23T01:00:17.365Z,54.65
2022-08-23T01:02:45.148Z,54.72
2022-08-23T01:05:13.041Z,55.49
2022-08-23T01:07:41.612Z,55.57
2022-08-23T01:10:09.786Z,55.39
2022-08-23T01:12:47.900Z,55.36
2022-08-23T01:15:16.374Z,55.66
2022-08-23T01:17:44.352Z,55.81
2022-08-23T01:20:12.151Z,55.38
2022-08-23T01:22:42.237Z,55.46
2022-08-23T01:25:10.001Z,55.82
2022-08-23T01:27:38.242Z,55.45
2022-08-23T01:30:05.998Z,55.17
2022-08-23T01:32:33.858Z,55.92
2022-08-23T01:35:01.639Z,55.92
2022-08-23T01:37:29.388Z,55.07
2022-08-23T01:39:57.536Z,55.31
2022-08-23T01:42:25.464Z,54.97
2022-08-23T01:44:53.219Z,55.00
2022-08-23T01:47:20.974Z,55.54
2022-08-23T01:49:49.073Z,55.56
2022-08-23T01:52:17.412Z,55.24
2022-08-23T01:54:45.226Z,55.55
2022-08-23T01:57:13.096Z,54.66
2022-08-23T01:59:40.837Z,55.49
2022-08-23T02:02:08.757Z,55.17
2022-08-23T02:04:36.529Z,55.64
2022-08-23T02:07:04.360Z,55.46
2022-08-23T02:09:32.617Z,55.50
2022-08-23T02:12:00.928Z,55.19
2022-08-23T02:14:28.716Z,55.32
2022-08-23T02:17:03.420Z,56.10
2022-08-23T02:19:33.053Z,56.27
2022-08-23T02:22:00.753Z,55.83
2022-08-23T02:24:28.503Z,56.00
2022-08-23T02:26:57.130Z,55.58
2022-08-23T02:29:25.054Z,56.23
2022-08-23T02:31:52.806Z,56.12
2022-08-23T02:34:20.846Z,56.08
2022-08-23T02:36:48.739Z,56.17
2022-08-23T02:39:16.733Z,56.45
2022-08-23T02:41:44.524Z,56.20
2022-08-23T02:44:12.369Z,56.00
2022-08-23T02:46:40.187Z,56.47
2022-08-23T02:49:08.249Z,56.93
2022-08-23T02:51:36.047Z,56.37
2022-08-23T02:54:03.813Z,56.41
2022-08-23T02:56:32.209Z,56.27
2022-08-23T02:59:00.467Z,56.53
2022-08-23T03:01:28.859Z,56.38
2022-08-23T03:03:56.720Z,56.37
2022-08-23T03:06:26.322Z,56.62
2022-08-23T03:08:54.745Z,56.96
2022-08-23T03:11:22.686Z,56.60
2022-08-23T03:13:50.522Z,56.48
2022-08-23T03:16:18.371Z,56.41
2022-08-23T03:18:46.651Z,56.73
2022-08-23T03:21:14.343Z,56.69
2022-08-23T03:23:42.210Z,57.05
2022-08-23T03:26:09.887Z,57.16
2022-08-23T03:28:38.084Z,57.07
2022-08-23T03:31:06.203Z,56.88
2022-08-23T03:33:33.888Z,56.69
2022-08-23T03:36:01.684Z,56.75
2022-08-23T03:38:29.444Z,56.94
2022-08-23T03:40:57.400Z,56.93
2022-08-23T03:43:25.355Z,56.93
2022-08-23T03:45:53.545Z,56.47
2022-08-23T03:48:21.447Z,56.33
2022-08-23T03:50:49.223Z,57.03
2022-08-23T03:53:17.564Z,56.68
2022-08-23T03:55:45.601Z,56.58
2022-08-23T03:58:13.448Z,56.64
2022-08-23T04:00:41.196Z,57.00
2022-08-23T04:03:09.007Z,56.43
2022-08-23T04:05:37.130Z,56.51
2022-08-23T04:08:05.119Z,57.00
2022-08-23T04:10:33.465Z,56.58
2022-08-23T04:13:01.743Z,56.56
2022-08-23T04:15:29.553Z,56.74
2022-08-23T04:17:57.312Z,56.70
2022-08-23T04:20:25.552Z,56.71
2022-08-23T04:22:55.203Z,57.33
2022-08-23T04:25:34.592Z,56.84
2022-08-23T04:28:03.520Z,56.89
2022-08-23T04:30:32.454Z,57.05
2022-08-23T04:33:01.622Z,56.98
2022-08-23T04:35:30.121Z,57.59
2022-08-23T04:37:57.911Z,56.95
2022-08-23T04:40:43.392Z,57.70
2022-08-23T04:43:11.141Z,57.51
2022-08-23T04:45:39.315Z,57.70
2022-08-23T04:48:11.999Z,57.79
2022-08-23T04:50:40.426Z,57.68
2022-08-23T04:53:08.220Z,57.73
2022-08-23T04:55:36.439Z,57.18
2022-08-23T04:58:06.261Z,57.30
2022-08-23T05:00:34.040Z,57.24
2022-08-23T05:03:01.876Z,57.15
2022-08-23T05:05:29.572Z,56.88
2022-08-23T05:07:57.299Z,56.94
2022-08-23T05:10:25.408Z,56.50
2022-08-23T05:12:53.122Z,56.82
2022-08-23T05:15:20.881Z,56.30
2022-08-23T05:17:48.994Z,56.45
2022-08-23T05:20:16.771Z,56.46
2022-08-23T05:22:44.526Z,56.05
2022-08-23T05:25:12.287Z,55.90
2022-08-23T05:27:40.477Z,55.90
2022-08-23T05:30:08.275Z,55.81
2022-08-23T05:32:43.172Z,55.32
2022-08-23T05:35:10.984Z,55.06
2022-08-23T05:37:38.763Z,54.78
2022-08-23T05:40:07.147Z,54.65
2022-08-23T05:42:35.119Z,54.27
2022-08-23T05:45:05.447Z,54.81
2022-08-23T05:47:34.012Z,54.17
2022-08-23T05:50:02.134Z,53.71
2022-08-23T05:52:29.905Z,53.84
2022-08-23T05:54:57.608Z,53.66
2022-08-23T05:57:25.703Z,53.82
2022-08-23T05:59:53.406Z,53.36
2022-08-23T06:02:21.207Z,53.28
2022-08-23T06:04:48.967Z,53.00
2022-08-23T06:07:17.094Z,53.14
2022-08-23T06:09:44.854Z,53.03
2022-08-23T06:12:12.673Z,52.27
2022-08-23T06:14:40.420Z,52.72
2022-08-23T06:17:08.916Z,52.23
2022-08-23T06:19:36.599Z,51.93
2022-08-23T06:22:04.398Z,51.37
2022-08-23T06:24:32.402Z,51.48
2022-08-23T06:27:00.220Z,51.04
2022-08-23T06:29:27.938Z,50.87
2022-08-23T06:31:56.750Z,51.21
2022-08-23T06:34:24.472Z,50.94
2022-08-23T06:36:53.063Z,50.91
2022-08-23T06:39:20.828Z,50.64
2022-08-23T06:41:49.589Z,50.63
2022-08-23T06:44:17.709Z,50.45
2022-08-23T06:46:45.717Z,50.34
2022-08-23T06:49:13.956Z,49.75
2022-08-23T06:51:42.247Z,50.04
2022-08-23T06:54:10.076Z,49.61
2022-08-23T06:56:40.083Z,49.30
2022-08-23T06:59:07.916Z,49.57
2022-08-23T07:01:48.979Z,48.84
2022-08-23T07:04:16.872Z,48.86
2022-08-23T07:06:44.964Z,49.04
2022-08-23T07:09:12.803Z,48.71
2022-08-23T07:11:40.726Z,48.37
2022-08-23T07:14:08.859Z,48.38
2022-08-23T07:16:36.775Z,48.49
2022-08-23T07:19:04.592Z,47.94
2022-08-23T07:21:32.708Z,47.39
2022-08-23T07:24:00.478Z,47.26
2022-08-23T07:26:28.325Z,47.36
2022-08-23T07:28:57.724Z,47.37
2022-08-23T07:31:27.492Z,47.25
2022-08-23T07:33:55.394Z,47.16
2022-08-23T07:36:27.998Z,46.72
2022-08-23T07:38:55.961Z,46.21
2022-08-23T07:41:24.269Z,46.26
2022-08-23T07:43:52.407Z,45.83
2022-08-23T07:46:20.201Z,45.71
2022-08-23T07:48:54.345Z,45.63
2022-08-23T07:51:23.081Z,45.58
2022-08-23T07:53:51.072Z,45.36
2022-08-23T07:56:18.798Z,45.17
2022-08-23T07:58:46.566Z,44.41
2022-08-23T08:01:15.941Z,44.56
2022-08-23T08:03:44.013Z,44.62
2022-08-23T08:06:12.775Z,44.37
2022-08-23T08:08:41.833Z,43.78
2022-08-23T08:11:09.543Z,43.65
2022-08-23T08:13:38.326Z,44.11
2022-08-23T08:16:06.312Z,43.17
2022-08-23T08:18:34.485Z,43.28
2022-08-23T08:21:02.453Z,42.74
2022-08-23T08:23:30.575Z,42.85
2022-08-23T08:25:58.318Z,43.04
2022-08-23T08:28:26.062Z,42.61
2022-08-23T08:30:53.806Z,42.48
2022-08-23T08:33:21.574Z,42.23
2022-08-23T08:35:57.628Z,42.05
2022-08-23T08:38:30.761Z,41.84
2022-08-23T08:40:58.559Z,41.89
2022-08-23T08:43:26.386Z,42.43
2022-08-23T08:45:59.113Z,42.18
2022-08-23T08:48:26.914Z,41.59
2022-08-23T08:50:54.648Z,42.02
2022-08-23T08:53:22.411Z,41.45
2022-08-23T08:55:50.114Z,41.25
2022-08-23T08:58:20.968Z,41.34
2022-08-23T09:00:50.712Z,41.28
2022-08-23T09:03:21.702Z,41.12
2022-08-23T09:05:49.506Z,41.12
2022-08-23T09:08:17.525Z,41.15
2022-08-23T09:10:45.223Z,41.26
2022-08-23T09:13:12.988Z,41.05
2022-08-23T09:15:41.214Z,40.41
2022-08-23T09:18:09.225Z,40.57
2022-08-23T09:20:37.141Z,39.82
2022-08-23T09:23:05.741Z,40.07
2022-08-23T09:25:34.008Z,40.19
2022-08-23T09:28:02.094Z,39.78
2022-08-23T09:30:30.196Z,39.08
2022-08-23T09:32:58.005Z,39.18
2022-08-23T09:35:25.774Z,39.00
2022-08-23T09:37:53.943Z,39.15
2022-08-23T09:40:21.615Z,38.68
2022-08-23T09:42:49.405Z,38.86
2022-08-23T09:45:17.043Z,38.59
2022-08-23T09:47:45.076Z,38.33
2022-08-23T09:50:12.788Z,38.29
2022-08-23T09:52:40.473Z,37.88
2022-08-23T09:55:08.114Z,37.13
2022-08-23T09:57:36.098Z,36.18
2022-08-23T10:00:03.857Z,35.80
2022-08-23T10:02:31.817Z,34.86
2022-08-23T10:04:59.910Z,34.31
2022-08-23T10:07:31.135Z,33.76
2022-08-23T10:09:58.954Z,33.02
2022-08-23T10:12:26.575Z,32.46
2022-08-23T10:14:54.942Z,32.15
2022-08-23T10:17:22.620Z,31.96
2022-08-23T10:19:50.420Z,31.26
2022-08-23T10:22:18.041Z,31.76
2022-08-23T10:24:46.153Z,30.96
2022-08-23T10:27:27.617Z,30.54
2022-08-23T10:29:55.812Z,30.03
2022-08-23T10:32:23.511Z,29.56
2022-08-23T10:34:51.211Z,29.81
2022-08-23T10:37:19.254Z,29.59
2022-08-23T10:39:47.512Z,30.74
2022-08-23T10:42:15.401Z,32.03
2022-08-23T10:44:43.396Z,31.90
2022-08-23T10:47:11.201Z,30.88
2022-08-23T10:49:39.420Z,30.23
2022-08-23T10:52:07.419Z,30.10
2022-08-23T10:54:46.173Z,29.47
2022-08-23T10:57:13.846Z,29.01
2022-08-23T10:59:41.569Z,28.31
2022-08-23T11:02:09.304Z,29.86
2022-08-23T11:04:37.123Z,30.82
2022-08-23T11:07:05.065Z,30.52
2022-08-23T11:09:32.787Z,30.84
2022-08-23T11:12:00.567Z,30.75
2022-08-23T11:14:28.181Z,30.14
2022-08-23T11:16:56.233Z,30.04
2022-08-23T11:19:24.002Z,30.29
2022-08-23T11:21:51.943Z,30.38
2022-08-23T11:24:22.562Z,30.87
2022-08-23T11:26:51.663Z,30.83
2022-08-23T11:29:19.454Z,30.45
2022-08-23T11:31:47.662Z,30.46
2022-08-23T11:34:15.916Z,30.10
2022-08-23T11:36:44.356Z,30.11
2022-08-23T11:39:11.974Z,30.19
2022-08-23T11:41:39.769Z,29.32
2022-08-23T11:44:07.779Z,28.62
2022-08-23T11:46:42.747Z,28.56
2022-08-23T11:49:10.353Z,27.06
2022-08-23T11:51:38.456Z,27.39
2022-08-23T11:54:06.122Z,28.27
2022-08-23T11:56:33.763Z,30.14
2022-08-23T11:59:02.589Z,30.81
2022-08-23T12:01:36.395Z,32.03
2022-08-23T12:04:09.984Z,32.03
2022-08-23T12:06:39.093Z,31.92
2022-08-23T12:09:11.377Z,31.86
2022-08-23T12:11:39.143Z,32.53
2022-08-23T12:14:06.945Z,32.47
2022-08-23T12:16:36.304Z,32.14
2022-08-23T12:19:06.876Z,30.90
2022-08-23T12:21:37.345Z,30.53
2022-08-23T12:24:05.496Z,30.86
2022-08-23T12:26:33.196Z,31.94
2022-08-23T12:29:01.555Z,32.54
2022-08-23T12:31:29.294Z,33.13
2022-08-23T12:33:57.048Z,32.46
2022-08-23T12:36:25.184Z,30.78
2022-08-23T12:38:53.687Z,29.59
2022-08-23T12:41:21.440Z,29.02
2022-08-23T12:43:50.369Z,29.12
2022-08-23T12:46:18.976Z,29.96
2022-08-23T12:48:46.763Z,30.53
2022-08-23T12:51:17.236Z,31.57
2022-08-23T12:53:45.714Z,32.25
2022-08-23T12:56:13.658Z,32.84
2022-08-23T12:58:41.793Z,32.61
2022-08-23T13:01:09.556Z,33.41
2022-08-23T13:03:37.345Z,32.46
2022-08-23T13:06:05.119Z,32.80
2022-08-23T13:08:34.857Z,32.53
2022-08-23T13:11:07.823Z,33.51
2022-08-23T13:13:36.533Z,32.93
2022-08-23T13:16:04.344Z,32.57
2022-08-23T13:18:32.112Z,32.55
2022-08-23T13:20:59.836Z,31.63
2022-08-23T13:23:27.899Z,31.82
2022-08-23T13:25:56.152Z,31.34
2022-08-23T13:28:23.859Z,30.71
2022-08-23T13:30:52.387Z,30.63
2022-08-23T13:33:20.173Z,30.05
2022-08-23T13:35:49.735Z,30.43
2022-08-23T13:38:21.446Z,30.43
2022-08-23T13:40:49.802Z,30.39
2022-08-23T13:43:17.539Z,30.90
2022-08-23T13:45:45.365Z,31.03
2022-08-23T13:48:14.158Z,30.34
2022-08-23T13:50:41.822Z,29.82
2022-08-23T13:53:16.709Z,29.34
2022-08-23T13:55:46.287Z,28.81
2022-08-23T13:58:14.062Z,28.08
2022-08-23T14:00:45.768Z,27.53
2022-08-23T14:03:22.856Z,27.17
2022-08-23T14:05:50.593Z,27.64
2022-08-23T14:08:18.231Z,27.11
2022-08-23T14:10:46.712Z,26.97
2022-08-23T14:13:14.410Z,26.80
2022-08-23T14:15:58.900Z,26.17
2022-08-23T14:18:29.959Z,26.35
2022-08-23T14:20:57.792Z,26.19
2022-08-23T14:23:26.215Z,26.67
2022-08-23T14:25:53.971Z,28.12
2022-08-23T14:28:21.703Z,28.85
2022-08-23T14:30:51.815Z,29.54
2022-08-23T14:33:20.727Z,29.90
2022-08-23T14:35:48.427Z,30.01
2022-08-23T14:38:16.441Z,30.44
2022-08-23T14:40:47.685Z,30.10
2022-08-23T14:43:15.523Z,30.61
2022-08-23T14:45:43.454Z,30.81
2022-08-23T14:48:12.505Z,30.92
2022-08-23T14:50:41.205Z,31.28
2022-08-23T14:53:08.946Z,31.47
2022-08-23T14:55:36.979Z,31.77
2022-08-23T14:58:05.598Z,31.66
2022-08-23T15:00:33.386Z,31.87
2022-08-23T15:03:01.145Z,31.71
2022-08-23T15:05:29.050Z,32.16
2022-08-23T15:07:56.670Z,31.61
2022-08-23T15:13:20.962Z,31.81
2022-08-23T15:15:54.078Z,30.41
2022-08-23T15:18:22.020Z,30.46
2022-08-23T15:20:51.288Z,30.41
2022-08-23T15:23:20.168Z,30.42
2022-08-23T15:25:49.846Z,30.63
2022-08-23T15:28:17.810Z,30.33
2022-08-23T15:30:45.973Z,31.15
2022-08-23T15:33:13.785Z,30.88
2022-08-23T15:35:41.835Z,30.57
2022-08-23T15:38:09.600Z,30.31
2022-08-23T15:40:37.565Z,30.64
2022-08-23T15:43:05.384Z,30.13
2022-08-23T15:45:33.199Z,29.29
2022-08-23T15:48:01.440Z,29.21
2022-08-23T15:50:31.129Z,29.46
2022-08-23T15:52:59.337Z,28.79
2022-08-23T15:55:27.304Z,28.30
2022-08-23T15:57:55.086Z,28.62
2022-08-23T16:00:23.174Z,28.81
2022-08-23T16:03:18.726Z,27.18
2022-08-23T16:05:38.512Z,26.81
2022-08-23T16:08:06.236Z,25.23
2022-08-23T16:10:34.270Z,25.46
2022-08-23T16:13:02.172Z,25.14
2022-08-23T16:15:29.895Z,24.59
2022-08-23T16:17:57.642Z,24.44
2022-08-23T16:20:25.795Z,23.84
2022-08-23T16:22:53.604Z,25.04
2022-08-23T16:25:21.333Z,25.73
2022-08-23T16:27:49.152Z,27.15
2022-08-23T16:30:16.821Z,27.60
2022-08-23T16:32:44.539Z,28.97
2022-08-23T16:35:12.213Z,29.31
2022-08-23T16:37:39.986Z,29.77
2022-08-23T16:40:08.226Z,29.77
2022-08-23T16:42:35.953Z,30.31
2022-08-23T16:45:03.654Z,30.53
2022-08-23T16:47:31.620Z,30.62
2022-08-23T16:49:59.354Z,31.10
2022-08-23T16:52:34.533Z,31.24
2022-08-23T16:55:03.666Z,31.86
2022-08-23T16:57:31.301Z,31.09
2022-08-23T16:59:58.997Z,31.55
2022-08-23T17:02:26.775Z,31.18
2022-08-23T17:04:54.485Z,31.70
2022-08-23T17:07:22.275Z,32.07
2022-08-23T17:09:50.290Z,31.76
2022-08-23T17:12:18.036Z,32.19
2022-08-23T17:14:45.779Z,31.98
2022-08-23T17:17:13.500Z,32.21
2022-08-23T17:19:41.558Z,32.32
2022-08-23T17:22:09.540Z,32.46
2022-08-23T17:24:37.515Z,32.52
2022-08-23T17:27:05.286Z,32.58
2022-08-23T17:29:34.602Z,33.36
2022-08-23T17:32:05.426Z,33.15
2022-08-23T17:34:33.187Z,33.64
2022-08-23T17:37:00.908Z,33.61
2022-08-23T17:39:29.371Z,33.67
2022-08-23T17:41:57.898Z,34.01
2022-08-23T17:44:25.671Z,33.71
2022-08-23T17:46:53.608Z,34.30
2022-08-23T17:49:21.363Z,34.40
2022-08-23T17:51:49.495Z,34.50
2022-08-23T17:54:17.276Z,34.86
2022-08-23T17:56:50.041Z,34.70
2022-08-23T17:59:18.613Z,34.87
2022-08-23T18:01:46.511Z,34.93
2022-08-23T18:04:15.314Z,35.33
2022-08-23T18:06:43.089Z,35.66
2022-08-23T18:09:11.148Z,35.48
2022-08-23T18:11:39.256Z,35.98
2022-08-23T18:14:07.073Z,36.09
2022-08-23T18:16:35.797Z,35.86
2022-08-23T18:19:04.073Z,36.41
2022-08-23T18:21:31.893Z,36.41
2022-08-23T18:23:59.621Z,36.32
2022-08-23T18:26:47.388Z,36.38
2022-08-23T18:29:15.836Z,37.03
2022-08-23T18:31:43.608Z,36.97
2022-08-23T18:34:11.447Z,37.06
2022-08-23T18:36:39.247Z,37.64
2022-08-23T18:39:07.658Z,37.87
2022-08-23T18:41:35.277Z,37.91
2022-08-23T18:44:03.537Z,38.23
2022-08-23T18:46:33.812Z,38.33
2022-08-23T18:49:01.957Z,38.14
2022-08-23T18:51:29.854Z,38.37
2022-08-23T18:53:57.951Z,38.06
2022-08-23T18:56:25.873Z,38.43
2022-08-23T18:58:53.924Z,38.66
2022-08-23T19:01:21.822Z,38.84
2022-08-23T19:03:49.673Z,39.05
2022-08-23T19:06:17.390Z,39.46
2022-08-23T19:08:45.293Z,39.30
2022-08-23T19:11:12.993Z,39.39
2022-08-23T19:13:40.717Z,40.29
2022-08-23T19:16:08.486Z,40.44
2022-08-23T19:18:36.590Z,40.18
2022-08-23T19:21:04.279Z,40.65
2022-08-23T19:23:32.011Z,40.23
2022-08-23T19:25:59.648Z,40.35
2022-08-23T19:28:27.730Z,40.77
2022-08-23T19:30:55.447Z,41.44
2022-08-23T19:33:23.289Z,40.93
2022-08-23T19:35:50.942Z,41.33
2022-08-23T19:38:20.966Z,41.15
2022-08-23T19:40:49.245Z,41.16
2022-08-23T19:43:18.313Z,41.26
2022-08-23T19:45:46.091Z,41.38
2022-08-23T19:48:13.893Z,41.99
2022-08-23T19:50:42.168Z,42.05
2022-08-23T19:53:09.785Z,41.88
2022-08-23T19:55:37.533Z,42.17
2022-08-23T19:58:06.071Z,41.66
2022-08-23T20:00:34.098Z,42.45
2022-08-23T20:03:01.989Z,42.45
2022-08-23T20:05:29.789Z,42.26
2022-08-23T20:07:57.507Z,42.79
2022-08-23T20:10:25.325Z,42.90
2022-08-23T20:12:53.096Z,43.56
2022-08-23T20:15:20.727Z,43.78
2022-08-23T20:17:48.735Z,43.34
2022-08-23T20:20:16.496Z,43.73
2022-08-23T20:23:02.087Z,43.73
2022-08-23T20:25:30.902Z,43.75
2022-08-23T20:27:58.690Z,44.21
2022-08-23T20:30:26.456Z,44.32
2022-08-23T20:32:55.037Z,44.65
2022-08-23T20:35:22.802Z,44.42
2022-08-23T20:37:50.543Z,44.48
2022-08-23T20:40:18.625Z,44.77
2022-08-23T20:42:46.290Z,44.74
2022-08-23T20:45:14.024Z,44.44
2022-08-23T20:47:41.775Z,44.64
2022-08-23T20:50:09.483Z,44.55
2022-08-23T20:52:37.183Z,44.78
2022-08-23T20:55:09.547Z,44.43
2022-08-23T20:57:39.102Z,44.50
2022-08-23T21:00:07.503Z,44.79
2022-08-23T21:02:35.277Z,44.89
2022-08-23T21:05:06.343Z,45.12
2022-08-23T21:07:34.408Z,45.17
2022-08-23T21:10:02.310Z,45.36
2022-08-23T21:12:30.109Z,45.96
2022-08-23T21:14:57.751Z,45.76
2022-08-23T21:17:25.444Z,45.49
2022-08-23T21:19:53.393Z,45.44
2022-08-23T21:22:21.138Z,45.90
2022-08-23T21:24:48.992Z,45.99
2022-08-23T21:27:16.666Z,45.94
2022-08-23T21:29:44.722Z,46.06
2022-08-23T21:32:12.590Z,46.26
2022-08-23T21:34:40.246Z,46.50
2022-08-23T21:37:07.953Z,45.91
2022-08-23T21:39:35.895Z,46.58
2022-08-23T21:42:14.852Z,46.16
2022-08-23T21:44:43.121Z,46.41
2022-08-23T21:47:11.215Z,46.69
2022-08-23T21:49:39.144Z,46.32
2022-08-23T21:52:06.870Z,46.40
2022-08-23T21:54:35.082Z,45.98
2022-08-23T21:57:03.139Z,46.16
2022-08-23T21:59:30.902Z,46.08
2022-08-23T22:01:58.629Z,46.07
2022-08-23T22:04:26.473Z,46.00
2022-08-23T22:06:56.055Z,46.54
2022-08-23T22:09:31.500Z,45.90
2022-08-23T22:12:00.345Z,45.86
2022-08-23T22:14:31.457Z,46.32
2022-08-23T22:16:59.897Z,46.36
2022-08-23T22:19:27.646Z,46.17
2022-08-23T22:21:55.463Z,45.83
2022-08-23T22:24:25.771Z,45.89
2022-08-23T22:26:54.745Z,46.30
2022-08-23T22:29:22.505Z,46.11
2022-08-23T22:31:50.190Z,46.20
2022-08-23T22:34:18.072Z,46.12
2022-08-23T22:36:51.428Z,46.46
2022-08-23T22:39:20.638Z,45.83
2022-08-23T22:41:48.302Z,46.15
2022-08-23T22:44:16.000Z,46.32
2022-08-23T22:46:44.103Z,46.94
2022-08-23T22:49:11.874Z,47.03
2022-08-23T22:51:41.549Z,47.02
2022-08-23T22:54:09.331Z,47.21
2022-08-23T22:56:37.901Z,47.49
2022-08-23T22:59:05.994Z,47.53
2022-08-23T23:01:34.156Z,47.76
2022-08-23T23:04:02.245Z,47.56
2022-08-23T23:06:30.007Z,48.09
2022-08-23T23:08:58.027Z,47.70
2022-08-23T23:11:25.697Z,47.92
2022-08-23T23:13:53.608Z,48.19
2022-08-23T23:16:21.314Z,48.29
2022-08-23T23:19:09.438Z,47.95
2022-08-23T23:21:36.032Z,48.37
2022-08-23T23:24:04.299Z,48.40
2022-08-23T23:26:31.932Z,48.02
2022-08-23T23:28:59.593Z,48.04
2022-08-23T23:31:27.211Z,48.12
2022-08-23T23:33:54.996Z,47.63
2022-08-23T23:36:22.655Z,47.76
2022-08-23T23:38:50.611Z,47.81
2022-08-23T23:41:18.314Z,48.03
2022-08-23T23:43:46.069Z,47.58
2022-08-23T23:46:13.759Z,47.40
2022-08-23T23:48:41.922Z,47.97
2022-08-23T23:51:09.554Z,47.60
2022-08-23T23:53:37.294Z,47.47
2022-08-23T23:56:04.965Z,48.01
2022-08-23T23:58:32.909Z,47.74
